createdAt,value
2023-05-09T00:02:09.132Z,12.80
2023-05-09T00:04:37.364Z,16.48
2023-05-09T00:07:05.745Z,14.32
2023-05-09T00:09:33.812Z,12.55
2023-05-09T00:12:04.243Z,13.35
2023-05-09T00:14:33.493Z,11.98
2023-05-09T00:17:01.658Z,15.07
2023-05-09T00:19:29.656Z,16.35
2023-05-09T00:21:57.688Z,14.23
2023-05-09T00:24:25.659Z,14.07
2023-05-09T00:26:53.675Z,15.40
2023-05-09T00:29:23.061Z,14.68
2023-05-09T00:31:51.082Z,14.27
2023-05-09T00:34:20.960Z,15.57
2023-05-09T00:36:49.861Z,14.18
2023-05-09T00:39:18.008Z,14.68
2023-05-09T00:41:45.944Z,12.77
2023-05-09T00:44:14.006Z,16.95
2023-05-09T00:46:43.434Z,16.17
2023-05-09T00:49:12.407Z,16.02
2023-05-09T00:51:41.879Z,16.52
2023-05-09T00:54:10.210Z,17.17
2023-05-09T00:56:38.684Z,12.82
2023-05-09T00:59:07.413Z,16.75
2023-05-09T01:01:35.592Z,20.90
2023-05-09T01:04:05.569Z,18.27
2023-05-09T01:06:39.833Z,14.95
2023-05-09T01:09:16.632Z,17.92
2023-05-09T01:11:50.488Z,14.70
2023-05-09T01:14:30.902Z,17.63
2023-05-09T01:17:06.682Z,14.55
2023-05-09T01:19:58.387Z,13.30
2023-05-09T01:22:30.954Z,17.38
2023-05-09T01:25:21.830Z,15.30
2023-05-09T01:27:58.621Z,17.73
2023-05-09T01:30:29.352Z,15.93
2023-05-09T01:33:01.702Z,14.13
2023-05-09T01:35:34.316Z,16.02
2023-05-09T01:38:05.757Z,15.80
2023-05-09T01:40:35.362Z,15.23
2023-05-09T01:43:07.035Z,17.95
2023-05-09T01:45:38.985Z,13.45
2023-05-09T01:48:09.424Z,14.80
2023-05-09T01:50:40.894Z,15.43
2023-05-09T01:53:11.508Z,15.38
2023-05-09T01:55:41.181Z,14.73
2023-05-09T01:58:10.710Z,15.88
2023-05-09T02:00:40.581Z,14.43
2023-05-09T02:03:09.506Z,13.35
2023-05-09T02:05:38.326Z,15.35
2023-05-09T02:08:07.090Z,16.92
2023-05-09T02:10:36.865Z,15.73
2023-05-09T02:13:06.811Z,16.27
2023-05-09T02:15:35.687Z,15.48
2023-05-09T02:18:05.390Z,16.40
2023-05-09T02:20:35.815Z,17.42
2023-05-09T02:23:04.148Z,18.98
2023-05-09T02:25:33.417Z,16.02
2023-05-09T02:28:02.587Z,18.13
2023-05-09T02:30:36.107Z,15.68
2023-05-09T02:33:09.388Z,17.00
2023-05-09T02:35:37.966Z,19.80
2023-05-09T02:38:06.558Z,16.15
2023-05-09T02:40:36.459Z,18.45
2023-05-09T02:43:04.984Z,16.65
2023-05-09T02:45:33.044Z,18.90
2023-05-09T02:48:01.112Z,21.48
2023-05-09T02:50:30.462Z,18.70
2023-05-09T02:52:58.693Z,18.05
2023-05-09T02:55:27.057Z,16.63
2023-05-09T02:58:09.404Z,15.23
2023-05-09T03:00:40.730Z,18.33
2023-05-09T03:03:10.032Z,18.70
2023-05-09T03:05:39.665Z,21.35
2023-05-09T03:08:07.897Z,17.98
2023-05-09T03:10:36.376Z,18.35
2023-05-09T03:13:04.938Z,17.88
2023-05-09T03:15:33.763Z,17.30
2023-05-09T03:18:01.965Z,17.35
2023-05-09T03:20:30.666Z,18.25
2023-05-09T03:23:00.270Z,18.42
2023-05-09T03:25:28.251Z,16.30
2023-05-09T03:27:56.377Z,20.98
2023-05-09T03:30:26.455Z,20.20
2023-05-09T03:32:55.964Z,18.52
2023-05-09T03:35:24.470Z,16.77
2023-05-09T03:37:52.506Z,18.92
2023-05-09T03:40:21.906Z,22.52
2023-05-09T03:42:56.633Z,18.15
2023-05-09T03:45:24.796Z,18.17
2023-05-09T03:47:53.192Z,17.55
2023-05-09T03:50:21.387Z,20.52
2023-05-09T03:52:50.455Z,22.65
2023-05-09T03:55:19.265Z,20.90
2023-05-09T03:57:48.549Z,23.48
2023-05-09T04:00:17.384Z,19.35
2023-05-09T04:02:58.256Z,20.80
2023-05-09T04:05:35.266Z,19.90
2023-05-09T04:08:04.652Z,17.92
2023-05-09T04:10:33.709Z,18.45
2023-05-09T04:13:03.836Z,19.13
2023-05-09T04:15:32.212Z,21.92
2023-05-09T04:18:00.250Z,17.77
2023-05-09T04:20:28.740Z,18.83
2023-05-09T04:22:57.216Z,18.38
2023-05-09T04:25:25.380Z,17.95
2023-05-09T04:27:53.436Z,20.58
2023-05-09T04:30:23.072Z,17.33
2023-05-09T04:32:51.151Z,26.48
2023-05-09T04:35:20.709Z,19.55
2023-05-09T04:37:50.340Z,18.00
2023-05-09T04:40:19.032Z,20.83
2023-05-09T04:42:57.233Z,19.02
2023-05-09T04:45:29.398Z,21.58
2023-05-09T04:47:59.537Z,20.15
2023-05-09T04:50:27.621Z,19.83
2023-05-09T04:52:55.584Z,16.60
2023-05-09T04:55:23.664Z,20.67
2023-05-09T04:57:52.700Z,18.85
2023-05-09T05:00:21.387Z,19.38
2023-05-09T05:02:51.632Z,18.88
2023-05-09T05:05:25.061Z,18.77
2023-05-09T05:07:54.157Z,20.95
2023-05-09T05:10:25.613Z,20.92
2023-05-09T05:13:01.931Z,22.30
2023-05-09T05:15:30.109Z,18.88
2023-05-09T05:18:00.299Z,25.50
2023-05-09T05:20:33.089Z,19.90
2023-05-09T05:23:01.556Z,20.77
2023-05-09T05:25:29.580Z,23.27
2023-05-09T05:27:58.669Z,20.70
2023-05-09T05:30:26.834Z,22.45
2023-05-09T05:32:54.982Z,19.85
2023-05-09T05:35:24.991Z,19.35
2023-05-09T05:37:54.193Z,19.95
2023-05-09T05:40:23.337Z,19.80
2023-05-09T05:42:53.207Z,17.42
2023-05-09T05:45:21.527Z,17.38
2023-05-09T05:47:53.316Z,20.92
2023-05-09T05:50:21.846Z,19.15
2023-05-09T05:52:51.201Z,18.58
2023-05-09T05:55:20.501Z,16.17
2023-05-09T05:57:48.657Z,23.50
2023-05-09T06:00:18.011Z,17.48
2023-05-09T06:02:50.666Z,17.85
2023-05-09T06:05:24.863Z,15.90
2023-05-09T06:07:54.742Z,18.55
2023-05-09T06:10:22.945Z,17.58
2023-05-09T06:12:50.963Z,15.85
2023-05-09T06:15:19.155Z,17.88
2023-05-09T06:17:50.184Z,17.33
2023-05-09T06:20:18.341Z,16.67
2023-05-09T06:22:46.589Z,16.25
2023-05-09T06:25:16.270Z,20.27
2023-05-09T06:27:44.693Z,19.33
2023-05-09T06:30:24.665Z,19.77
2023-05-09T06:32:54.165Z,15.35
2023-05-09T06:35:22.348Z,16.25
2023-05-09T06:37:50.447Z,14.98
2023-05-09T06:40:20.038Z,17.48
2023-05-09T06:42:48.058Z,18.13
2023-05-09T06:45:17.003Z,16.33
2023-05-09T06:47:45.526Z,15.07
2023-05-09T06:50:13.672Z,16.17
2023-05-09T06:52:41.693Z,15.32
2023-05-09T06:55:11.130Z,14.82
2023-05-09T06:57:41.239Z,14.52
2023-05-09T07:00:10.834Z,18.70
2023-05-09T07:02:41.825Z,14.25
2023-05-09T07:05:10.851Z,13.70
2023-05-09T07:07:38.964Z,14.38
2023-05-09T07:10:12.090Z,15.23
2023-05-09T07:12:42.047Z,14.00
2023-05-09T07:15:11.478Z,17.17
2023-05-09T07:17:39.677Z,16.73
2023-05-09T07:20:08.830Z,14.60
2023-05-09T07:22:37.758Z,17.08
2023-05-09T07:25:08.668Z,13.50
2023-05-09T07:27:36.808Z,13.13
2023-05-09T07:30:07.596Z,13.90
2023-05-09T07:32:35.911Z,11.68
2023-05-09T07:35:04.109Z,15.00
2023-05-09T07:37:32.123Z,12.93
2023-05-09T07:40:00.401Z,14.77
2023-05-09T07:42:30.225Z,15.20
2023-05-09T07:44:59.079Z,10.68
2023-05-09T07:47:28.564Z,10.20
2023-05-09T07:49:56.677Z,10.15
2023-05-09T07:52:24.835Z,10.27
2023-05-09T07:54:52.838Z,9.80
2023-05-09T07:57:20.908Z,10.38
2023-05-09T07:59:48.914Z,10.20
2023-05-09T08:02:17.017Z,10.88
2023-05-09T08:04:48.828Z,9.23
2023-05-09T08:07:17.393Z,9.35
2023-05-09T08:09:45.563Z,9.20
2023-05-09T08:12:13.576Z,8.20
2023-05-09T08:14:41.613Z,9.70
2023-05-09T08:17:09.677Z,11.98
2023-05-09T08:19:37.726Z,8.27
2023-05-09T08:22:07.123Z,13.88
2023-05-09T08:24:35.164Z,11.95
2023-05-09T08:27:03.772Z,13.68
2023-05-09T08:29:31.920Z,9.95
2023-05-09T08:31:59.919Z,12.13
2023-05-09T08:34:28.084Z,14.30
2023-05-09T08:36:56.090Z,9.15
2023-05-09T08:39:25.391Z,9.90
2023-05-09T08:41:55.783Z,10.18
2023-05-09T08:44:24.558Z,11.82
2023-05-09T08:46:55.025Z,11.60
2023-05-09T08:49:23.932Z,8.93
2023-05-09T08:51:52.968Z,6.55
2023-05-09T08:54:22.912Z,8.38
2023-05-09T08:56:52.839Z,10.52
2023-05-09T08:59:21.066Z,6.78
2023-05-09T09:01:51.607Z,6.25
2023-05-09T09:04:19.747Z,15.10
2023-05-09T09:06:48.143Z,9.05
2023-05-09T09:09:17.414Z,8.73
2023-05-09T09:11:46.390Z,8.57
2023-05-09T09:14:25.471Z,7.97
2023-05-09T09:16:55.609Z,6.55
2023-05-09T09:19:28.137Z,7.38
2023-05-09T09:21:59.689Z,6.63
2023-05-09T09:24:27.677Z,12.40
2023-05-09T09:26:55.659Z,7.53
2023-05-09T09:29:28.671Z,10.60
2023-05-09T09:31:56.841Z,12.32
2023-05-09T09:34:25.116Z,12.75
2023-05-09T09:36:53.105Z,10.85
2023-05-09T09:39:21.983Z,7.10
2023-05-09T09:41:50.418Z,7.25
2023-05-09T09:44:19.783Z,15.45
2023-05-09T09:46:51.319Z,9.60
2023-05-09T09:49:21.512Z,6.70
2023-05-09T09:51:53.547Z,9.00
2023-05-09T09:54:23.085Z,5.47
2023-05-09T09:56:54.278Z,3.60
2023-05-09T09:59:24.897Z,7.47
2023-05-09T10:01:59.353Z,10.50
2023-05-09T10:04:29.577Z,4.85
2023-05-09T10:06:59.688Z,6.32
2023-05-09T10:09:28.814Z,8.65
2023-05-09T10:11:58.129Z,8.05
2023-05-09T10:14:27.379Z,5.63
2023-05-09T10:16:58.041Z,4.22
2023-05-09T10:19:29.650Z,7.75
2023-05-09T10:21:59.665Z,5.18
2023-05-09T10:24:30.657Z,3.92
2023-05-09T10:27:05.240Z,4.65
2023-05-09T10:29:36.515Z,3.08
2023-05-09T10:32:13.178Z,4.93
2023-05-09T10:34:43.572Z,5.95
2023-05-09T10:37:12.612Z,5.30
2023-05-09T10:39:41.196Z,6.13
2023-05-09T10:42:17.608Z,7.75
2023-05-09T10:44:46.490Z,4.57
2023-05-09T10:47:15.896Z,4.80
2023-05-09T10:49:44.165Z,5.68
2023-05-09T10:52:12.482Z,4.30
2023-05-09T10:54:40.450Z,5.68
2023-05-09T10:57:10.729Z,5.80
2023-05-09T10:59:42.489Z,23.95
2023-05-09T11:02:14.856Z,5.72
2023-05-09T11:04:44.126Z,3.88
2023-05-09T11:07:25.619Z,3.30
2023-05-09T11:10:07.729Z,3.58
2023-05-09T11:12:35.790Z,6.10
2023-05-09T11:15:09.698Z,6.78
2023-05-09T11:17:39.607Z,11.20
2023-05-09T11:20:09.648Z,5.03
2023-05-09T11:22:42.318Z,8.93
2023-05-09T11:25:11.581Z,20.25
2023-05-09T11:27:42.419Z,6.75
2023-05-09T11:30:15.400Z,5.00
2023-05-09T11:32:45.826Z,3.97
2023-05-09T11:35:16.425Z,4.32
2023-05-09T11:37:49.756Z,4.38
2023-05-09T11:40:19.356Z,4.95
2023-05-09T11:42:49.748Z,17.92
2023-05-09T11:45:19.358Z,8.13
2023-05-09T11:47:48.430Z,7.18
2023-05-09T11:50:17.916Z,4.63
2023-05-09T11:52:47.335Z,6.63
2023-05-09T11:55:16.782Z,6.90
2023-05-09T11:57:47.175Z,7.13
2023-05-09T12:00:17.462Z,8.85
2023-05-09T12:02:47.907Z,22.10
2023-05-09T12:05:18.639Z,10.55
2023-05-09T12:07:47.653Z,5.75
2023-05-09T12:10:16.963Z,7.00
2023-05-09T12:12:46.402Z,5.88
2023-05-09T12:15:15.537Z,7.13
2023-05-09T12:17:47.245Z,10.65
2023-05-09T12:20:17.011Z,4.47
2023-05-09T12:22:45.191Z,11.68
2023-05-09T12:25:13.777Z,10.88
2023-05-09T12:27:42.764Z,4.68
2023-05-09T12:30:14.150Z,4.30
2023-05-09T12:32:43.587Z,3.72
2023-05-09T12:35:13.101Z,3.25
2023-05-09T12:37:41.259Z,9.35
2023-05-09T12:40:15.174Z,5.25
2023-05-09T12:42:46.467Z,6.97
2023-05-09T12:45:15.795Z,6.88
2023-05-09T12:47:45.422Z,3.85
2023-05-09T12:50:14.963Z,6.00
2023-05-09T12:52:54.521Z,4.82
2023-05-09T12:55:30.254Z,5.15
2023-05-09T12:57:59.963Z,3.97
2023-05-09T13:00:28.208Z,4.45
2023-05-09T13:02:56.845Z,11.15
2023-05-09T13:05:26.389Z,9.25
2023-05-09T13:07:58.093Z,4.55
2023-05-09T13:10:28.577Z,9.05
2023-05-09T13:12:57.278Z,4.90
2023-05-09T13:15:26.810Z,11.23
2023-05-09T13:17:55.446Z,5.50
2023-05-09T13:20:23.645Z,7.90
2023-05-09T13:22:53.077Z,4.85
2023-05-09T13:25:21.393Z,6.60
2023-05-09T13:27:49.405Z,4.13
2023-05-09T13:30:18.239Z,5.85
2023-05-09T13:32:47.468Z,4.63
2023-05-09T13:35:17.340Z,4.85
2023-05-09T13:37:45.470Z,5.55
2023-05-09T13:40:15.767Z,5.13
2023-05-09T13:42:44.020Z,4.85
2023-05-09T13:45:12.795Z,8.27
2023-05-09T13:47:41.345Z,6.50
2023-05-09T13:50:10.167Z,4.53
2023-05-09T13:52:38.200Z,5.25
2023-05-09T13:55:07.013Z,3.67
2023-05-09T13:57:36.402Z,6.05
2023-05-09T14:00:05.147Z,4.95
2023-05-09T14:02:40.599Z,5.47
2023-05-09T14:05:09.369Z,6.13
2023-05-09T14:07:37.496Z,7.45
2023-05-09T14:10:16.177Z,5.93
2023-05-09T14:12:47.195Z,6.97
2023-05-09T14:15:16.192Z,4.20
2023-05-09T14:17:44.452Z,5.82
2023-05-09T14:20:15.626Z,4.75
2023-05-09T14:22:43.856Z,5.13
2023-05-09T14:25:11.837Z,7.88
2023-05-09T14:27:40.139Z,9.07
2023-05-09T14:30:10.844Z,6.32
2023-05-09T14:32:38.852Z,4.65
2023-05-09T14:35:07.814Z,25.08
2023-05-09T14:37:35.914Z,10.77
2023-05-09T14:40:05.622Z,12.35
2023-05-09T14:42:33.898Z,10.20
2023-05-09T14:45:01.876Z,12.50
2023-05-09T14:47:31.259Z,10.45
2023-05-09T14:49:59.679Z,9.82
2023-05-09T14:52:28.697Z,11.45
2023-05-09T14:54:56.771Z,15.50
2023-05-09T14:57:24.763Z,9.77
2023-05-09T14:59:52.925Z,12.25
2023-05-09T15:02:20.985Z,13.10
2023-05-09T15:04:50.453Z,12.25
2023-05-09T15:07:18.723Z,14.20
2023-05-09T15:09:46.752Z,14.40
2023-05-09T15:12:15.001Z,13.35
2023-05-09T15:14:43.109Z,15.13
2023-05-09T15:17:11.147Z,12.20
2023-05-09T15:19:39.704Z,14.50
2023-05-09T15:22:09.578Z,15.98
2023-05-09T15:24:37.812Z,18.20
2023-05-09T15:27:05.830Z,14.15
2023-05-09T15:29:33.820Z,15.55
2023-05-09T15:32:01.858Z,15.82
2023-05-09T15:34:29.785Z,13.05
2023-05-09T15:36:57.733Z,13.65
2023-05-09T15:39:27.246Z,14.10
2023-05-09T15:41:55.217Z,9.90
2023-05-09T15:44:23.323Z,11.75
2023-05-09T15:46:51.322Z,9.98
2023-05-09T15:49:19.310Z,9.77
2023-05-09T15:51:47.290Z,12.05
2023-05-09T15:54:15.331Z,10.98
2023-05-09T15:56:44.810Z,10.82
2023-05-09T15:59:12.853Z,8.27
2023-05-09T16:01:40.954Z,10.35
2023-05-09T16:04:09.194Z,9.93
2023-05-09T16:06:37.871Z,10.38
2023-05-09T16:09:06.758Z,11.13
2023-05-09T16:11:34.778Z,10.20
2023-05-09T16:14:05.471Z,19.65
2023-05-09T16:16:33.819Z,12.27
2023-05-09T16:19:02.690Z,11.05
2023-05-09T16:21:33.030Z,9.07
2023-05-09T16:24:02.824Z,9.20
2023-05-09T16:26:31.048Z,10.68
2023-05-09T16:28:59.223Z,12.73
2023-05-09T16:31:28.644Z,10.98
2023-05-09T16:33:56.858Z,16.65
2023-05-09T16:36:24.949Z,11.45
2023-05-09T16:38:53.111Z,9.90
2023-05-09T16:41:21.313Z,11.85
2023-05-09T16:43:49.428Z,10.90
2023-05-09T16:46:17.603Z,11.65
2023-05-09T16:48:47.102Z,12.85
2023-05-09T16:51:15.039Z,9.70
2023-05-09T16:53:43.488Z,10.23
2023-05-09T16:56:11.512Z,11.30
2023-05-09T16:58:39.779Z,11.60
2023-05-09T17:01:07.795Z,17.08
2023-05-09T17:03:35.896Z,13.13
2023-05-09T17:06:05.523Z,13.77
2023-05-09T17:08:33.605Z,10.98
2023-05-09T17:11:01.669Z,10.65
2023-05-09T17:13:29.655Z,10.70
2023-05-09T17:15:57.735Z,9.57
2023-05-09T17:18:36.982Z,8.63
2023-05-09T17:21:07.661Z,10.27
2023-05-09T17:23:35.661Z,10.70
2023-05-09T17:26:03.814Z,11.77
2023-05-09T17:28:31.856Z,10.93
2023-05-09T17:30:59.982Z,10.50
2023-05-09T17:33:28.078Z,11.05
2023-05-09T17:35:57.423Z,10.88
2023-05-09T17:38:26.754Z,8.55
2023-05-09T17:40:54.783Z,9.07
2023-05-09T17:43:24.042Z,8.38
2023-05-09T17:45:52.769Z,9.98
2023-05-09T17:48:21.200Z,9.90
2023-05-09T17:50:49.257Z,8.40
2023-05-09T17:53:17.548Z,10.80
2023-05-09T17:55:47.064Z,9.93
2023-05-09T17:58:15.805Z,9.43
2023-05-09T18:00:44.628Z,8.38
2023-05-09T18:03:12.788Z,9.88
2023-05-09T18:05:40.939Z,8.23
2023-05-09T18:08:08.946Z,11.43
2023-05-09T18:10:37.035Z,8.68
2023-05-09T18:13:06.634Z,7.05
2023-05-09T18:15:37.992Z,7.60
2023-05-09T18:18:06.709Z,7.88
2023-05-09T18:20:34.733Z,5.22
2023-05-09T18:23:03.040Z,4.35
2023-05-09T18:25:31.203Z,4.25
2023-05-09T18:27:59.342Z,2.75
2023-05-09T18:30:28.871Z,4.43
2023-05-09T18:33:00.380Z,5.85
2023-05-09T18:35:28.695Z,8.40
2023-05-09T18:37:56.804Z,8.18
2023-05-09T18:40:25.799Z,3.97
2023-05-09T18:42:54.190Z,5.15
2023-05-09T18:45:25.979Z,5.78
2023-05-09T18:47:55.864Z,4.97
2023-05-09T18:50:24.245Z,4.70
2023-05-09T18:52:52.353Z,5.45
2023-05-09T18:55:21.897Z,3.72
2023-05-09T18:57:50.296Z,4.28
2023-05-09T19:00:18.525Z,4.68
2023-05-09T19:02:46.637Z,4.45
2023-05-09T19:05:15.962Z,5.30
2023-05-09T19:07:43.995Z,5.28
2023-05-09T19:10:13.242Z,6.18
2023-05-09T19:12:41.576Z,6.03
2023-05-09T19:15:11.211Z,4.32
2023-05-09T19:17:39.290Z,3.00
2023-05-09T19:20:08.545Z,3.80
2023-05-09T19:22:39.154Z,5.97
2023-05-09T19:25:07.832Z,4.30
2023-05-09T19:27:35.962Z,5.10
2023-05-09T19:30:04.326Z,3.55
2023-05-09T19:32:32.534Z,4.20
2023-05-09T19:35:00.615Z,4.85
2023-05-09T19:37:28.590Z,4.85
2023-05-09T19:39:58.306Z,4.25
2023-05-09T19:42:26.513Z,5.45
2023-05-09T19:44:54.539Z,3.85
2023-05-09T19:47:22.552Z,3.83
2023-05-09T19:49:50.856Z,4.32
2023-05-09T19:52:19.256Z,3.85
2023-05-09T19:54:47.223Z,3.33
2023-05-09T19:57:16.657Z,4.00
2023-05-09T19:59:44.605Z,7.45
2023-05-09T20:02:12.554Z,4.28
2023-05-09T20:04:46.478Z,3.97
2023-05-09T20:07:14.755Z,4.38
2023-05-09T20:09:42.886Z,4.13
2023-05-09T20:12:11.597Z,4.25
2023-05-09T20:14:41.005Z,5.90
2023-05-09T20:17:09.077Z,3.95
2023-05-09T20:19:37.083Z,3.92
2023-05-09T20:22:05.161Z,3.90
2023-05-09T20:24:33.213Z,4.78
2023-05-09T20:27:02.560Z,4.82
2023-05-09T20:29:30.663Z,3.45
2023-05-09T20:32:00.058Z,5.35
2023-05-09T20:34:28.411Z,3.85
2023-05-09T20:36:58.025Z,4.55
2023-05-09T20:39:26.833Z,3.45
2023-05-09T20:41:55.782Z,5.00
2023-05-09T20:44:23.962Z,4.53
2023-05-09T20:46:52.828Z,1.60
2023-05-09T20:49:22.747Z,7.07
2023-05-09T20:51:50.983Z,2.83
2023-05-09T20:54:19.160Z,1.95
2023-05-09T20:56:47.180Z,3.05
2023-05-09T20:59:15.400Z,4.15
2023-05-09T21:01:43.940Z,4.82
2023-05-09T21:04:12.024Z,5.13
2023-05-09T21:06:41.467Z,2.55
2023-05-09T21:09:10.036Z,3.45
2023-05-09T21:11:38.536Z,3.17
2023-05-09T21:14:07.199Z,5.10
2023-05-09T21:16:35.531Z,2.80
2023-05-09T21:19:05.217Z,4.28
2023-05-09T21:21:33.711Z,3.33
2023-05-09T21:24:08.743Z,3.45
2023-05-09T21:26:36.983Z,4.22
2023-05-09T21:29:05.324Z,3.40
2023-05-09T21:31:33.530Z,3.78
2023-05-09T21:34:01.852Z,4.75
2023-05-09T21:36:29.770Z,2.90
2023-05-09T21:38:57.727Z,3.22
2023-05-09T21:41:27.943Z,3.42
2023-05-09T21:43:56.058Z,3.17
2023-05-09T21:46:24.054Z,3.00
2023-05-09T21:48:52.119Z,3.17
2023-05-09T21:51:20.265Z,3.05
2023-05-09T21:53:48.176Z,2.78
2023-05-09T21:56:16.101Z,3.80
2023-05-09T21:58:45.341Z,3.30
2023-05-09T22:01:13.292Z,3.15
2023-05-09T22:03:41.490Z,3.13
2023-05-09T22:06:09.599Z,2.50
2023-05-09T22:08:37.607Z,2.60
2023-05-09T22:11:05.806Z,3.70
2023-05-09T22:13:33.811Z,3.20
2023-05-09T22:16:03.852Z,3.03
2023-05-09T22:18:32.209Z,3.95
2023-05-09T22:21:00.555Z,3.03
2023-05-09T22:23:28.620Z,3.13
2023-05-09T22:25:56.625Z,3.15
2023-05-09T22:28:24.623Z,3.03
2023-05-09T22:30:52.646Z,3.08
2023-05-09T22:33:22.048Z,4.43
2023-05-09T22:35:49.995Z,2.83
2023-05-09T22:38:18.176Z,3.05
2023-05-09T22:40:46.241Z,6.80
2023-05-09T22:43:14.435Z,2.80
2023-05-09T22:45:42.494Z,4.82
2023-05-09T22:48:10.841Z,3.15
2023-05-09T22:50:40.224Z,2.90
2023-05-09T22:53:08.241Z,3.38
2023-05-09T22:55:36.438Z,3.50
2023-05-09T22:58:04.690Z,3.22
2023-05-09T23:00:32.765Z,4.00
2023-05-09T23:03:03.092Z,3.58
2023-05-09T23:05:31.500Z,3.00
2023-05-09T23:08:00.903Z,3.40
2023-05-09T23:10:28.897Z,4.70
2023-05-09T23:12:56.982Z,3.55
2023-05-09T23:15:24.989Z,3.38
2023-05-09T23:17:53.056Z,5.00
2023-05-09T23:20:21.161Z,4.80
2023-05-09T23:22:49.208Z,3.38
2023-05-09T23:25:18.596Z,4.15
2023-05-09T23:27:46.873Z,4.13
2023-05-09T23:30:15.302Z,3.25
2023-05-09T23:32:44.265Z,3.53
2023-05-09T23:35:12.299Z,4.15
2023-05-09T23:37:40.378Z,4.55
2023-05-09T23:40:09.659Z,4.78
2023-05-09T23:42:39.014Z,5.25
2023-05-09T23:45:08.034Z,3.40
2023-05-09T23:47:36.122Z,3.25
2023-05-09T23:50:04.366Z,11.95
2023-05-09T23:52:32.680Z,4.53
2023-05-09T23:55:00.646Z,5.85
2023-05-09T23:57:28.639Z,6.40
2023-05-09T23:59:58.036Z,5.95
